Time;durP1;ratioP1;P1;durP2;ratioP2;P2;SDS_P1;SDS_P2;PMS_P1;PMS_P2;Temp;Humidity;BMP_temperature;BMP_pressure;BME280_temperature;BME280_humidity;BME280_pressure;Samples;Min_cycle;Max_cycle;Signal;HPM_P1;HPM_P2
2023/02/10 00:01:17;;;;;;;17.73;6.90;;;;;;;-142.75;100.00;79815.66;5030557;28;20036;-67
2023/02/10 00:03:43;;;;;;;16.30;6.87;;;;;;;-142.75;100.00;79811.72;5029297;28;20021;-65
2023/02/10 00:06:08;;;;;;;;;;;;;;;-142.75;100.00;79799.91;5030800;28;20024;-65
2023/02/10 00:08:34;;;;;;;17.63;7.40;;;;;;;-142.75;100.00;79805.81;5037005;28;19915;-66
2023/02/10 00:11:01;;;;;;;;;;;;;;;-142.75;100.00;79809.75;5035509;28;20028;-68
2023/02/10 00:13:27;;;;;;;16.30;7.70;;;;;;;-142.75;100.00;79805.81;5030609;28;19909;-67
2023/02/10 00:15:53;;;;;;;22.77;9.20;;;;;;;-142.75;100.00;79805.81;5046910;28;20119;-67
2023/02/10 00:18:18;;;;;;;;;;;;;;;-142.75;100.00;79799.91;5050986;28;20108;-67
2023/02/10 00:20:44;;;;;;;22.00;8.47;;;;;;;-142.75;100.00;79792.00;5041870;28;20032;-67
2023/02/10 00:23:09;;;;;;;;;;;;;;;-142.75;100.00;79786.09;5030953;28;20032;-67
2023/02/10 00:25:35;;;;;;;20.70;7.03;;;;;;;-142.75;100.00;79795.94;5030327;28;21332;-66
2023/02/10 00:28:01;;;;;;;17.40;8.13;;;;;;;-142.75;100.00;79795.94;5032534;28;20021;-67
2023/02/10 00:30:26;;;;;;;;;;;;;;;-142.75;100.00;79795.94;5047330;28;20039;-67
2023/02/10 00:32:51;;;;;;;15.77;7.47;;;;;;;-142.75;100.00;79788.06;5029109;28;20007;-67
2023/02/10 00:35:17;;;;;;;;;;;;;;;-142.75;100.00;79797.94;5029217;28;20063;-67
2023/02/10 00:37:42;;;;;;;20.93;8.20;;;;;;;-142.75;100.00;79792.00;5038862;28;19947;-68
2023/02/10 00:40:08;;;;;;;;;;;;;;;-142.75;100.00;79792.00;5049842;28;20029;-67
2023/02/10 00:42:33;;;;;;;21.10;8.73;;;;;;;-142.75;100.00;79784.13;5047588;28;19970;-67
2023/02/10 00:44:58;;;;;;;;;;;;;;;-142.75;100.00;79772.31;5048581;28;20513;-67
2023/02/10 00:47:25;;;;;;;15.67;7.63;;;;;;;-142.75;100.00;79795.94;5053949;28;19909;-66
2023/02/10 00:49:52;;;;;;;19.73;8.97;;;;;;;-142.75;100.00;79784.13;5054020;28;20013;-67
2023/02/10 00:52:17;;;;;;;18.90;9.33;;;;;;;-142.75;100.00;79776.25;5053710;28;20040;-68
2023/02/10 00:54:42;;;;;;;;;;;;;;;-142.75;100.00;79770.34;5053872;28;20039;-66
2023/02/10 00:57:08;;;;;;;18.40;9.33;;;;;;;-142.75;100.00;79758.53;5041682;28;19920;-67
2023/02/10 00:59:33;;;;;;;;;;;;;;;-142.75;100.00;79748.66;5034162;28;20051;-67
2023/02/10 01:01:59;;;;;;;18.13;8.37;;;;;;;-142.75;100.00;79752.63;5032511;28;19909;-67
2023/02/10 01:04:24;;;;;;;;;;;;;;;-142.75;100.00;79752.63;5033887;28;20383;-67
2023/02/10 01:06:49;;;;;;;17.23;8.87;;;;;;;-142.75;100.00;79768.38;5033546;28;19909;-67
2023/02/10 01:09:14;;;;;;;;;;;;;;;-142.75;100.00;79760.50;5034001;28;20409;-67
2023/02/10 01:11:40;;;;;;;19.33;9.10;;;;;;;-142.75;100.00;79764.44;5032276;28;20004;-67
2023/02/10 01:14:05;;;;;;;;;;;;;;;-142.75;100.00;79768.38;5032555;28;20048;-66
2023/02/10 01:16:30;;;;;;;22.77;8.93;;;;;;;-142.75;100.00;79770.34;5033211;28;19909;-67
2023/02/10 01:18:57;;;;;;;;;;;;;;;-142.75;100.00;79772.31;5033850;28;20029;-67
2023/02/10 01:21:23;;;;;;;18.67;8.85;;;;;;;-142.75;100.00;79788.06;5050264;28;19916;-66
2023/02/10 01:23:48;;;;;;;;;;;;;;;-142.75;100.00;79780.19;5053632;28;20021;-67
2023/02/10 01:26:14;;;;;;;19.07;8.03;;;;;;;-142.75;100.00;79776.25;5052909;28;20360;-67
2023/02/10 01:28:40;;;;;;;;;;;;;;;-142.75;100.00;79762.47;5053504;28;20480;-67
2023/02/10 01:31:07;;;;;;;21.17;9.67;;;;;;;-142.75;100.00;79772.31;5052886;28;20011;-67
2023/02/10 01:33:33;;;;;;;27.93;10.17;;;;;;;-142.75;100.00;79776.25;5052958;28;20516;-67
2023/02/10 01:35:58;;;;;;;;;;;;;;;-142.75;100.00;79762.47;5044530;28;20100;-67
2023/02/10 01:38:23;;;;;;;20.80;9.63;;;;;;;-142.75;100.00;79762.47;5049205;28;19935;-67
2023/02/10 01:40:49;;;;;;;;;;;;;;;-142.75;100.00;79762.47;5053302;28;20043;-67
2023/02/10 01:43:16;;;;;;;22.70;10.83;;;;;;;-142.75;100.00;79760.50;5052788;28;20003;-67
2023/02/10 01:45:42;;;;;;;25.30;10.33;;;;;;;-142.75;100.00;79776.25;5052583;28;20017;-66
2023/02/10 01:48:09;;;;;;;19.37;10.30;;;;;;;-142.75;100.00;79788.06;5052818;28;20095;-67
2023/02/10 01:50:42;;;;;;;24.37;10.43;;;;;;;-142.75;100.00;79788.06;5051280;28;20027;-67
2023/02/10 01:53:09;;;;;;;23.70;10.07;;;;;;;-142.75;100.00;79786.09;5051188;28;20025;-67
2023/02/10 01:55:39;;;;;;;21.67;10.27;;;;;;;-142.75;100.00;79786.09;5052208;28;20033;-67
2023/02/10 01:58:08;;;;;;;27.77;10.97;;;;;;;-142.75;100.00;79795.94;5052622;28;20379;-67
2023/02/10 02:00:34;;;;;;;19.73;9.43;;;;;;;-142.75;100.00;79803.84;5052418;28;20021;-66
2023/02/10 02:03:00;;;;;;;;;;;;;;;-142.75;100.00;79807.78;5052814;28;20127;-67
2023/02/10 02:05:32;;;;;;;19.67;10.03;;;;;;;-142.75;100.00;79811.72;5047162;28;20424;-67
2023/02/10 02:08:02;;;;;;;22.70;9.70;;;;;;;-142.75;100.00;79827.47;5032582;28;20025;-67
2023/02/10 02:10:39;;;;;;;24.10;9.57;;;;;;;-142.75;100.00;79819.59;5040400;28;20017;-67
2023/02/10 02:13:15;;;;;;;20.57;9.90;;;;;;;-142.75;100.00;79827.47;5050782;28;20013;-66
2023/02/10 02:15:49;;;;;;;23.10;10.10;;;;;;;-142.75;100.00;79813.69;5052180;28;20021;-67
2023/02/10 02:18:32;;;;;;;28.63;10.50;;;;;;;-142.75;100.00;79827.47;5042516;28;20091;-66
2023/02/10 02:21:12;;;;;;;22.83;10.07;;;;;;;-142.75;100.00;79811.72;5037437;28;20021;-67
2023/02/10 02:24:14;;;;;;;24.90;10.30;;;;;;;-142.75;100.00;79811.72;5030768;28;20028;-67
2023/02/10 02:26:56;;;;;;;21.97;10.67;;;;;;;-142.75;100.00;79807.78;5031973;28;20083;-66
2023/02/10 02:30:03;;;;;;;23.67;10.23;;;;;;;-142.75;100.00;79817.63;5049109;28;20061;-67
2023/02/10 02:32:37;;;;;;;24.40;11.10;;;;;;;-142.75;100.00;79833.38;5009994;28;20030;-66
2023/02/10 02:35:11;;;;;;;22.17;10.73;;;;;;;-142.75;100.00;79831.41;5026909;28;20066;-67
2023/02/10 02:37:43;;;;;;;21.73;11.60;;;;;;;-142.75;100.00;79825.50;5032073;28;20488;-68
2023/02/10 02:40:11;;;;;;;26.10;11.53;;;;;;;-142.75;100.00;79835.34;5030401;28;20111;-67
2023/02/10 02:42:37;;;;;;;28.27;10.60;;;;;;;-142.75;100.00;79835.34;5029391;28;20021;-67
2023/02/10 02:45:05;;;;;;;;;;;;;;;-142.75;100.00;79839.28;5031997;28;20025;-67
2023/02/10 02:48:06;;;;;;;27.20;11.57;;;;;;;-142.75;100.00;79853.09;5031690;28;19916;-67
2023/02/10 02:50:43;;;;;;;26.20;12.10;;;;;;;-142.75;100.00;79857.03;5031672;28;20025;-67
2023/02/10 02:53:11;;;;;;;24.07;12.03;;;;;;;-142.75;100.00;79870.81;5030379;28;20052;-67
2023/02/10 02:55:53;;;;;;;29.03;12.43;;;;;;;-142.75;100.00;79862.94;5029944;28;20025;-67
2023/02/10 02:58:56;;;;;;;25.47;11.20;;;;;;;-142.75;100.00;79866.88;5035369;28;20024;-68
2023/02/10 03:01:36;;;;;;;22.70;11.80;;;;;;;-142.75;100.00;79868.84;5051424;28;20020;-67
2023/02/10 03:04:02;;;;;;;31.70;12.60;;;;;;;-142.75;100.00;79870.81;5051043;28;20483;-67
2023/02/10 03:06:28;;;;;;;25.13;12.13;;;;;;;-142.75;100.00;79882.63;5050830;28;20092;-67
2023/02/10 03:08:53;;;;;;;;;;;;;;;-142.75;100.00;79886.56;5051686;28;20570;-67
2023/02/10 03:11:19;;;;;;;25.67;13.07;;;;;;;-142.75;100.00;79906.28;5050954;28;19915;-67
2023/02/10 03:13:44;;;;;;;;;;;;;;;-142.75;100.00;79894.47;5051554;28;20024;-65
2023/02/10 03:16:09;;;;;;;26.50;11.83;;;;;;;-142.75;100.00;79900.38;5050782;28;19908;-67
2023/02/10 03:18:35;;;;;;;;;;;;;;;-142.75;100.00;79904.31;5050348;28;20476;-66
2023/02/10 03:21:00;;;;;;;25.33;11.33;;;;;;;-142.75;100.00;79906.28;5050976;28;19982;-66
2023/02/10 03:23:25;;;;;;;;;;;;;;;-142.75;100.00;79914.16;5050127;28;20471;-68
2023/02/10 03:25:51;;;;;;;25.93;11.53;;;;;;;-142.75;100.00;79902.34;5033189;28;19908;-67
2023/02/10 03:28:16;;;;;;;;;;;;;;;-142.75;100.00;79910.22;5031369;28;20799;-66
2023/02/10 03:30:46;;;;;;;26.27;12.90;;;;;;;-142.75;100.00;79920.06;5031048;28;19913;-67
2023/02/10 03:33:13;;;;;;;30.77;12.80;;;;;;;-142.75;100.00;79937.81;5031077;28;20028;-66
2023/02/10 03:35:39;;;;;;;30.13;13.40;;;;;;;-142.75;100.00;79929.91;5046007;28;20443;-67
2023/02/10 03:38:05;;;;;;;;;;;;;;;-142.75;100.00;79924.00;5051271;28;20096;-67
2023/02/10 03:40:30;;;;;;;26.77;12.53;;;;;;;-142.75;100.00;79922.03;5050515;28;19908;-67
2023/02/10 03:42:55;;;;;;;;;;;;;;;-142.75;100.00;79910.22;5047339;28;20072;-66
2023/02/10 03:45:20;;;;;;;28.67;13.33;;;;;;;-142.75;100.00;79910.22;5050503;28;20007;-66
2023/02/10 03:47:46;;;;;;;;;;;;;;;-142.75;100.00;79914.16;5051847;28;20380;-66
2023/02/10 03:50:11;;;;;;;27.60;11.97;;;;;;;-142.75;100.00;79914.16;5050681;28;19916;-66
2023/02/10 03:52:36;;;;;;;;;;;;;;;-142.75;100.00;79910.22;5049642;28;20017;-67
2023/02/10 03:55:01;;;;;;;29.10;14.03;;;;;;;-142.75;100.00;79922.03;5043299;28;19957;-68
2023/02/10 03:57:26;;;;;;;;;;;;;;;-142.75;100.00;79916.13;5038503;28;20034;-67
2023/02/10 03:59:52;;;;;;;35.03;14.70;;;;;;;-142.75;100.00;79910.22;5030777;28;19915;-67
2023/02/10 04:02:17;;;;;;;;;;;;;;;-142.75;100.00;79902.34;5033674;28;20456;-67
2023/02/10 04:04:42;;;;;;;29.37;13.90;;;;;;;-142.75;100.00;79898.41;5050244;28;19916;-66
2023/02/10 04:07:08;;;;;;;;;;;;;;;-142.75;100.00;79898.41;5051090;28;20490;-67
2023/02/10 04:09:33;;;;;;;37.67;14.53;;;;;;;-142.75;100.00;79910.22;5049129;28;19909;-66
2023/02/10 04:11:58;;;;;;;;;;;;;;;-142.75;100.00;79902.34;5033556;28;20032;-68
2023/02/10 04:14:24;;;;;;;36.50;14.90;;;;;;;-142.75;100.00;79912.19;5030464;28;19931;-67
2023/02/10 04:16:49;;;;;;;;;;;;;;;-142.75;100.00;79910.22;5030413;28;20037;-67
2023/02/10 04:19:14;;;;;;;31.13;14.17;;;;;;;-142.75;100.00;79924.00;5033330;28;19960;-66
2023/02/10 04:21:39;;;;;;;;;;;;;;;-142.75;100.00;79927.94;5034900;28;20120;-67
2023/02/10 04:24:05;;;;;;;26.80;14.17;;;;;;;-142.75;100.00;79927.94;5033096;28;19916;-66
2023/02/10 04:26:30;;;;;;;;;;;;;;;-142.75;100.00;79922.03;5033323;28;20018;-67
2023/02/10 04:28:56;;;;;;;34.30;15.13;;;;;;;-142.75;100.00;79922.03;5034353;28;19971;-66
2023/02/10 04:31:21;;;;;;;;;;;;;;;-142.75;100.00;79918.09;5034716;28;20080;-67
2023/02/10 04:33:46;;;;;;;29.67;12.87;;;;;;;-142.75;100.00;79924.00;5032987;28;19939;-66
2023/02/10 04:36:11;;;;;;;;;;;;;;;-142.75;100.00;79925.97;5033272;28;20032;-68
2023/02/10 04:38:37;;;;;;;30.77;14.33;;;;;;;-142.75;100.00;79931.88;5034153;28;19920;-66
2023/02/10 04:41:04;;;;;;;;;;;;;;;-142.75;100.00;79925.97;5034430;28;20021;-67
2023/02/10 04:43:30;;;;;;;32.33;14.43;;;;;;;-142.75;100.00;79929.91;5032849;28;19971;-66
2023/02/10 04:45:55;;;;;;;;;;;;;;;-142.75;100.00;79929.91;5052028;28;20008;-65
2023/02/10 04:48:21;;;;;;;31.80;14.00;;;;;;;-142.75;100.00;79931.88;5053881;28;19909;-67
2023/02/10 04:50:46;;;;;;;;;;;;;;;-142.75;100.00;79939.78;5054300;28;20032;-66
2023/02/10 04:53:11;;;;;;;28.43;13.80;;;;;;;-142.75;100.00;79933.84;5053755;28;19924;-66
2023/02/10 04:55:37;;;;;;;;;;;;;;;-142.75;100.00;79939.78;5053760;28;20017;-68
2023/02/10 04:58:02;;;;;;;30.10;13.10;;;;;;;-142.75;100.00;79929.91;5053743;28;19935;-66
2023/02/10 05:00:27;;;;;;;;;;;;;;;-142.75;100.00;79937.81;5041175;28;20503;-67
2023/02/10 05:02:53;;;;;;;28.50;13.43;;;;;;;-142.75;100.00;79922.03;5045931;28;19908;-66
2023/02/10 05:05:18;;;;;;;;;;;;;;;-142.75;100.00;79937.81;5038360;28;20488;-66
2023/02/10 05:07:43;;;;;;;26.97;13.03;;;;;;;-142.75;100.00;79947.66;5048585;28;19948;-66
2023/02/10 05:10:09;;;;;;;;;;;;;;;-142.75;100.00;79961.44;5053744;28;20020;-65
2023/02/10 05:12:34;;;;;;;22.63;12.30;;;;;;;-142.75;100.00;79969.31;5052143;28;19909;-67
2023/02/10 05:14:59;;;;;;;;;;;;;;;-142.75;100.00;79953.56;5044174;28;20065;-67
2023/02/10 05:17:25;;;;;;;23.40;10.90;;;;;;;-142.75;100.00;79975.22;5032163;28;19913;-66
2023/02/10 05:19:50;;;;;;;;;;;;;;;-142.75;100.00;79994.94;5032562;28;20036;-65
2023/02/10 05:22:15;;;;;;;22.03;11.07;;;;;;;-142.75;100.00;79994.94;5033306;28;19913;-66
2023/02/10 05:24:41;;;;;;;;;;;;;;;-142.75;100.00;79983.13;5033531;28;20026;-66
2023/02/10 05:27:06;;;;;;;21.20;10.63;;;;;;;-142.75;100.00;79996.91;5031807;28;19916;-66
2023/02/10 05:29:32;;;;;;;;;;;;;;;-142.75;100.00;79996.91;5043939;28;20653;-66
2023/02/10 05:31:57;;;;;;;17.80;9.93;;;;;;;-142.75;100.00;79996.91;5053067;28;20010;-68
2023/02/10 05:34:22;;;;;;;;;;;;;;;-142.75;100.00;79994.94;5037868;28;20025;-66
2023/02/10 05:36:48;;;;;;;19.23;9.73;;;;;;;-142.75;100.00;80004.78;5032904;28;19908;-67
2023/02/10 05:39:25;;;;;;;;;;;;;;;-142.75;100.00;80010.69;5033362;28;20029;-66
2023/02/10 05:41:57;;;;;;;15.40;7.05;;;;;;;-142.75;100.00;80024.50;5031807;28;19915;-66
2023/02/10 05:44:23;;;;;;;19.57;9.27;;;;;;;-142.75;100.00;80024.50;5032880;28;20032;-67
2023/02/10 05:46:49;;;;;;;18.00;9.37;;;;;;;-142.75;100.00;80028.44;5047404;28;20025;-67
2023/02/10 05:49:15;;;;;;;15.37;8.53;;;;;;;-142.75;100.00;80028.44;5040632;28;20047;-66
2023/02/10 05:51:41;;;;;;;;;;;;;;;-142.75;100.00;80024.50;5031971;28;20480;-66
2023/02/10 05:54:06;;;;;;;17.00;8.80;;;;;;;-142.75;100.00;80028.44;5032616;28;19932;-66
2023/02/10 05:56:32;;;;;;;;;;;;;;;-142.75;100.00;80054.03;5048600;28;20021;-66
2023/02/10 05:58:57;;;;;;;15.90;8.43;;;;;;;-142.75;100.00;80054.03;5034505;28;19917;-66
2023/02/10 06:01:22;;;;;;;;;;;;;;;-142.75;100.00;80077.69;5038929;28;20025;-68
2023/02/10 06:03:48;;;;;;;18.80;8.60;;;;;;;-142.75;100.00;80073.75;5048739;28;20269;-66
2023/02/10 06:06:13;;;;;;;;;;;;;;;-142.75;100.00;80059.94;5037039;28;20044;-66
2023/02/10 06:08:38;;;;;;;17.97;8.57;;;;;;;-142.75;100.00;80059.94;5031217;28;20295;-66
2023/02/10 06:11:04;;;;;;;;;;;;;;;-142.75;100.00;80069.81;5032868;28;20544;-67
2023/02/10 06:13:29;;;;;;;20.27;10.00;;;;;;;-142.75;100.00;80075.72;5031203;28;20441;-66
2023/02/10 06:15:54;;;;;;;;;;;;;;;-142.75;100.00;80075.72;5039291;28;20538;-66
2023/02/10 06:18:20;;;;;;;14.47;8.37;;;;;;;-142.75;100.00;80083.59;5035146;28;19920;-66
2023/02/10 06:20:45;;;;;;;;;;;;;;;-142.75;100.00;80077.69;5032707;28;20535;-67
2023/02/10 06:23:11;;;;;;;17.77;10.00;;;;;;;-142.75;100.00;80065.84;5032147;28;20360;-67
2023/02/10 06:25:37;;;;;;;;;;;;;;;-142.75;100.00;80067.84;5032502;28;20017;-67
2023/02/10 06:28:02;;;;;;;21.00;9.73;;;;;;;-142.75;100.00;80077.69;5048286;28;19913;-68
2023/02/10 06:30:27;;;;;;;;;;;;;;;-142.75;100.00;80075.72;5052477;28;20029;-66
2023/02/10 06:32:53;;;;;;;19.13;9.73;;;;;;;-142.75;100.00;80079.66;5041035;28;20430;-66
2023/02/10 06:35:18;;;;;;;;;;;;;;;-142.75;100.00;80083.59;5035532;28;20020;-66
2023/02/10 06:37:43;;;;;;;17.83;10.13;;;;;;;-142.75;100.00;80087.53;5051714;28;19955;-66
2023/02/10 06:40:09;;;;;;;;;;;;;;;-142.75;100.00;80079.66;5051331;28;20025;-66
2023/02/10 06:42:35;;;;;;;20.33;10.00;;;;;;;-142.75;100.00;80087.53;5030597;28;19905;-66
2023/02/10 06:45:00;;;;;;;;;;;;;;;-142.75;100.00;80083.59;5032073;28;20524;-66
2023/02/10 06:47:25;;;;;;;17.23;9.23;;;;;;;-142.75;100.00;80089.50;5030571;28;19916;-67
2023/02/10 06:49:51;;;;;;;;;;;;;;;-142.75;100.00;80091.47;5040581;28;20397;-68
2023/02/10 06:52:16;;;;;;;18.87;9.93;;;;;;;-142.75;100.00;80087.53;5034688;28;19991;-67
2023/02/10 06:54:41;;;;;;;;;;;;;;;-142.75;100.00;80083.59;5050336;28;20416;-65
2023/02/10 06:57:07;;;;;;;15.17;9.13;;;;;;;-142.75;100.00;80083.59;5050053;28;19999;-66
2023/02/10 06:59:33;;;;;;;;;;;;;;;-142.75;100.00;80109.22;5050626;28;20119;-66
2023/02/10 07:02:00;;;;;;;21.60;10.13;;;;;;;-142.75;100.00;80099.34;5035473;28;19909;-66
2023/02/10 07:04:29;;;;;;;19.03;10.20;;;;;;;-142.75;100.00;80091.47;5031430;28;20468;-66
2023/02/10 07:06:55;;;;;;;18.50;10.27;;;;;;;-142.75;100.00;80109.22;5029956;28;20017;-66
2023/02/10 07:09:20;;;;;;;17.07;10.67;;;;;;;-142.75;100.00;80128.91;5035306;28;20020;-66
2023/02/10 07:11:45;;;;;;;;;;;;;;;-142.75;100.00;80138.75;5038530;28;20028;-65
2023/02/10 07:14:10;;;;;;;18.27;10.33;;;;;;;-142.75;100.00;80174.22;5043811;28;19927;-64
2023/02/10 07:16:36;;;;;;;;;;;;;;;-142.75;100.00;80166.34;5035710;28;20032;-66
2023/02/10 07:19:02;;;;;;;17.87;10.07;;;;;;;-142.75;100.00;80150.59;5035380;28;19917;-65
2023/02/10 07:21:27;;;;;;;17.97;10.47;;;;;;;-142.75;100.00;80134.81;5030960;28;20025;-66
2023/02/10 07:23:53;;;;;;;;;;;;;;;-142.75;100.00;80121.03;5030206;28;20022;-64
2023/02/10 07:26:18;;;;;;;17.50;10.03;;;;;;;-142.75;100.00;80138.75;5040631;28;19909;-67
2023/02/10 07:28:43;;;;;;;;;;;;;;;-142.75;100.00;80117.09;5046337;28;20024;-66
2023/02/10 07:31:09;;;;;;;23.00;11.17;;;;;;;-142.75;100.00;80130.88;5035593;28;19921;-67
2023/02/10 07:33:34;;;;;;;18.27;10.40;;;;;;;-142.75;100.00;80134.81;5038355;28;20020;-66
2023/02/10 07:36:00;;;;;;;;;;;;;;;-142.75;100.00;80138.75;5049652;28;20096;-66
2023/02/10 07:38:26;;;;;;;21.23;11.20;;;;;;;-142.75;100.00;80126.94;5050689;28;19921;-66
2023/02/10 07:40:51;;;;;;;;;;;;;;;-142.75;100.00;80119.06;5043180;28;20120;-66
2023/02/10 07:43:16;;;;;;;25.00;13.20;;;;;;;-142.75;100.00;80160.44;5030762;28;20329;-67
2023/02/10 07:45:41;;;;;;;;;;;;;;;-142.75;100.00;80144.66;5037788;28;20105;-65
2023/02/10 07:48:07;;;;;;;22.03;10.90;;;;;;;-142.75;100.00;80142.69;5025564;28;20655;-67
2023/02/10 07:50:32;;;;;;;;;;;;;;;-142.75;100.00;80115.13;5038518;28;20084;-67
2023/02/10 07:52:57;;;;;;;25.70;12.50;;;;;;;-142.75;100.00;80134.81;5028451;28;19959;-67
2023/02/10 07:55:23;;;;;;;;;;;;;;;-142.75;100.00;80113.16;5023532;28;20350;-66
2023/02/10 07:57:48;;;;;;;19.37;11.30;;;;;;;-142.75;100.00;80117.09;5025273;28;19920;-67
2023/02/10 08:00:14;;;;;;;;;;;;;;;-142.75;100.00;80140.72;5030059;28;20037;-66
2023/02/10 08:02:39;;;;;;;25.23;12.13;;;;;;;-142.75;100.00;80144.66;5028880;28;20396;-68
2023/02/10 08:05:05;;;;;;;;;;;;;;;-142.75;100.00;80138.75;5029418;28;20070;-67
2023/02/10 08:07:30;;;;;;;23.97;12.50;;;;;;;-142.75;100.00;80123.00;5032765;28;19916;-66
2023/02/10 08:09:55;;;;;;;26.10;12.67;;;;;;;-142.75;100.00;80121.03;5030091;28;20066;-68
2023/02/10 08:12:21;;;;;;;;;;;;;;;-142.75;100.00;80113.16;5030110;28;20021;-67
2023/02/10 08:14:46;;;;;;;21.87;11.80;;;;;;;-142.75;100.00;80126.94;5029739;28;20295;-68
2023/02/10 08:17:11;;;;;;;;;;;;;;;-142.75;100.00;80103.28;5028948;28;20036;-66
2023/02/10 08:19:37;;;;;;;23.60;11.97;;;;;;;-142.75;100.00;80113.16;5028322;28;19913;-68
2023/02/10 08:22:04;;;;;;;28.03;13.37;;;;;;;-142.75;100.00;80095.41;5028829;28;20463;-67
2023/02/10 08:24:30;;;;;;;28.93;13.40;;;;;;;-142.75;100.00;80079.66;5029860;28;20035;-67
2023/02/10 08:26:55;;;;;;;29.93;13.83;;;;;;;-142.75;100.00;80087.53;5034830;28;20469;-67
2023/02/10 08:29:21;;;;;;;;;;;;;;;-142.75;100.00;80075.72;5031495;28;20092;-69
2023/02/10 08:31:50;;;;;;;28.23;12.83;;;;;;;-142.75;100.00;80069.81;5028873;28;19909;-69
2023/02/10 08:34:16;;;;;;;34.17;13.67;;;;;;;-142.75;100.00;80071.78;5028572;28;20014;-69
2023/02/10 08:36:42;;;;;;;27.60;14.33;;;;;;;-142.75;100.00;80056.00;5031407;28;20022;-68
2023/02/10 08:39:08;;;;;;;;;;;;;;;-142.75;100.00;80054.03;5033635;28;20047;-66
2023/02/10 08:41:33;;;;;;;26.47;13.23;;;;;;;-142.75;100.00;80069.81;5037510;28;20007;-67
2023/02/10 08:43:58;;;;;;;;;;;;;;;-142.75;100.00;80042.22;5032860;28;20087;-67
2023/02/10 08:46:24;;;;;;;35.73;13.80;;;;;;;-142.75;100.00;80022.50;5029709;28;19909;-67
2023/02/10 08:48:49;;;;;;;;;;;;;;;-142.75;100.00;80000.84;5030593;28;20052;-67
2023/02/10 08:51:15;;;;;;;30.23;13.97;;;;;;;-142.75;100.00;79975.22;5030064;28;19916;-68
2023/02/10 08:53:40;;;;;;;26.83;13.20;;;;;;;-142.75;100.00;79985.09;5047684;28;20029;-66
2023/02/10 08:56:12;;;;;;;;;;;;;;;-142.75;100.00;80006.75;5048802;28;20437;-67
2023/02/10 08:58:38;;;;;;;25.03;12.40;;;;;;;-142.75;100.00;80008.72;5050017;28;20022;-65
2023/02/10 09:01:10;;;;;;;;;;;;;;;-142.75;100.00;80020.53;5049241;28;20155;-67
2023/02/10 09:03:36;;;;;;;26.30;12.50;;;;;;;-142.75;100.00;80010.69;5038501;28;19935;-67
2023/02/10 09:06:02;;;;;;;29.30;14.00;;;;;;;-142.75;100.00;79981.16;5031950;28;20028;-67
2023/02/10 09:08:27;;;;;;;;;;;;;;;-142.75;100.00;79961.44;5034093;28;20044;-67
2023/02/10 09:10:52;;;;;;;26.53;12.23;;;;;;;-142.75;100.00;79951.59;5033503;28;19909;-67
2023/02/10 09:13:18;;;;;;;;;;;;;;;-142.75;100.00;79971.28;5032742;28;20025;-67
2023/02/10 09:15:43;;;;;;;28.60;13.13;;;;;;;-142.75;100.00;79949.63;5040254;28;19999;-67
2023/02/10 09:29:34;;;;;;;30.35;15.05;;;;;;;-142.75;100.00;79845.22;5043490;28;20416;-67
2023/02/10 09:31:59;;;;;;;;;;;;;;;-142.75;100.00;79847.19;5031687;28;20038;-66
2023/02/10 09:34:24;;;;;;;29.17;13.13;;;;;;;-142.75;100.00;79847.19;5047769;28;20297;-67
2023/02/10 09:36:50;;;;;;;;;;;;;;;-142.75;100.00;79860.97;5048078;28;20021;-67
2023/02/10 09:39:15;;;;;;;23.47;12.10;;;;;;;-142.75;100.00;79841.25;5047088;28;19979;-67
2023/02/10 09:42:03;;;;;;;;;;;;;;;-142.75;100.00;79792.00;5047972;28;20032;-67
2023/02/10 09:44:34;;;;;;;27.40;13.55;;;;;;;-142.75;100.00;79821.56;5028125;28;19920;-66
2023/02/10 09:47:18;;;;;;;29.97;15.90;;;;;;;-142.75;100.00;79801.88;5027571;28;20445;-67
2023/02/10 09:50:12;;;;;;;32.87;16.43;;;;;;;-142.75;100.00;79776.25;5027152;28;20025;-66
2023/02/10 09:52:54;;;;;;;31.93;15.97;;;;;;;-142.75;100.00;79793.97;5027545;28;20482;-65
2023/02/10 09:55:28;;;;;;;28.67;14.37;;;;;;;-142.75;100.00;79805.81;5027483;28;20394;-66
2023/02/10 09:58:00;;;;;;;28.13;14.67;;;;;;;-142.75;100.00;79774.28;5025767;28;20064;-66
2023/02/10 10:00:42;;;;;;;32.70;15.07;;;;;;;-142.75;100.00;79768.38;5027220;28;20224;-67
2023/02/10 10:03:16;;;;;;;28.47;14.13;;;;;;;-142.75;100.00;79701.38;5025073;28;20021;-66
2023/02/10 10:06:02;;;;;;;25.67;13.47;;;;;;;-142.75;100.00;79715.19;5034768;28;20017;-67
2023/02/10 10:08:32;;;;;;;29.52;15.10;;;;;;;-142.75;100.00;79736.84;5037082;28;20033;-65
2023/02/10 10:11:04;;;;;;;26.43;14.27;;;;;;;-142.75;100.00;79788.06;5027046;28;20115;-67
2023/02/10 10:13:29;;;;;;;25.10;14.30;;;;;;;-142.75;100.00;79772.31;5027052;28;20036;-67
2023/02/10 10:16:07;;;;;;;;;;;;;;;-142.75;100.00;79752.63;5035270;28;20021;-67
2023/02/10 10:19:03;;;;;;;30.55;14.10;;;;;;;-142.75;100.00;79801.88;5043046;28;19913;-64
2023/02/10 10:21:34;;;;;;;32.57;14.53;;;;;;;-142.75;100.00;79764.44;5011164;28;20517;-68
2023/02/10 10:24:19;;;;;;;27.63;13.20;;;;;;;-142.75;100.00;79697.44;5039425;28;20105;-67
2023/02/10 10:27:00;;;;;;;27.77;14.60;;;;;;;-142.75;100.00;79675.78;5033769;28;20048;-68
2023/02/10 10:29:40;;;;;;;29.00;13.93;;;;;;;-142.75;100.00;79732.91;5006192;28;20026;-67
2023/02/10 10:32:32;;;;;;;23.80;13.10;;;;;;;-142.75;100.00;79669.88;5011684;28;20502;-68
2023/02/10 10:34:59;;;;;;;28.23;12.67;;;;;;;-142.75;100.00;79634.41;4993893;28;20022;-68
2023/02/10 10:37:25;;;;;;;26.87;13.33;;;;;;;-142.75;100.00;79541.81;5023628;28;20025;-67
2023/02/10 10:40:01;;;;;;;;;;;;;;;-142.75;100.00;79563.50;5022431;28;20034;-67
2023/02/10 10:42:47;;;;;;;29.07;13.47;;;;;;;-142.75;100.00;79504.41;5020654;28;19949;-67
2023/02/10 10:45:27;;;;;;;26.43;13.30;;;;;;;-142.75;100.00;79579.25;4997543;28;20026;-67
2023/02/10 10:48:06;;;;;;;26.83;12.70;;;;;;;-142.75;100.00;79530.00;5017792;28;20026;-67
2023/02/10 10:50:31;;;;;;;28.00;14.50;;;;;;;-142.75;100.00;79579.25;5019746;28;20033;-67
2023/02/10 10:52:57;;;;;;;;;;;;;;;-142.75;100.00;79598.94;5023985;28;20402;-66
2023/02/10 10:55:31;;;;;;;24.60;12.57;;;;;;;-142.75;100.00;79575.31;5030343;28;20055;-67
2023/02/10 10:58:00;;;;;;;28.03;13.13;;;;;;;-142.75;100.00;79543.78;5019826;28;20026;-68
2023/02/10 11:00:28;;;;;;;31.10;15.03;;;;;;;-142.75;100.00;79441.34;5016111;28;20111;-67
2023/02/10 11:02:58;;;;;;;30.33;13.83;;;;;;;-142.75;100.00;79403.94;5028258;28;20029;-67
2023/02/10 11:05:37;;;;;;;28.77;13.70;;;;;;;-142.75;100.00;79445.28;5032309;28;20029;-67
2023/02/10 11:08:07;;;;;;;24.83;14.33;;;;;;;-142.75;100.00;79466.97;5032539;28;20041;-67
2023/02/10 11:11:01;;;;;;;28.87;15.20;;;;;;;-142.75;100.00;79520.16;5032725;28;20392;-67
2023/02/10 11:13:30;;;;;;;30.30;15.23;;;;;;;-142.75;100.00;79411.81;5016967;28;20045;-67
2023/02/10 11:16:15;;;;;;;34.50;14.83;;;;;;;-142.75;100.00;79437.41;5023236;28;21475;-68
2023/02/10 11:18:51;;;;;;;31.40;16.07;;;;;;;-142.75;100.00;79390.13;4992128;28;20018;-67
2023/02/10 11:21:16;;;;;;;29.90;15.55;;;;;;;-142.75;100.00;79348.78;5011801;28;20486;-63
2023/02/10 11:23:51;;;;;;;;;;;;;;;-142.75;100.00;79421.66;5013460;28;20032;-63
2023/02/10 11:26:25;;;;;;;30.70;15.00;;;;;;;-142.75;100.00;79466.97;5018185;28;19913;-63
2023/02/10 11:28:51;;;;;;;34.50;16.80;;;;;;;-142.75;100.00;79463.03;5020740;28;20022;-63
2023/02/10 11:31:27;;;;;;;35.33;17.60;;;;;;;-142.75;100.00;79539.84;5020496;28;20041;-63
2023/02/10 11:34:20;;;;;;;42.67;18.02;;;;;;;-142.75;100.00;79510.31;5020648;28;20029;-63
2023/02/10 11:36:46;;;;;;;46.40;19.10;;;;;;;-142.75;100.00;79508.34;4954116;28;20363;-68
2023/02/10 11:39:17;;;;;;;;;;;;;;;-142.75;100.00;79457.13;5013387;28;20033;-65